createdAt,value
2022-11-17T00:02:26.231Z,6.30
2022-11-17T00:05:17.380Z,6.22
2022-11-17T00:08:07.315Z,6.43
2022-11-17T00:11:01.338Z,6.13
2022-11-17T00:14:17.259Z,5.82
2022-11-17T00:17:09.630Z,5.88
2022-11-17T00:20:18.109Z,5.78
2022-11-17T00:23:08.231Z,5.07
2022-11-17T00:25:58.207Z,5.70
2022-11-17T00:28:55.082Z,5.80
2022-11-17T00:32:04.036Z,6.15
2022-11-17T00:34:54.093Z,5.93
2022-11-17T00:38:02.514Z,5.28
2022-11-17T00:40:52.601Z,5.47
2022-11-17T00:43:42.496Z,5.38
2022-11-17T00:46:32.875Z,5.85
2022-11-17T00:49:25.264Z,5.18
2022-11-17T00:52:15.219Z,4.93
2022-11-17T00:55:05.927Z,5.60
2022-11-17T00:57:56.066Z,5.13
2022-11-17T01:00:49.095Z,5.55
2022-11-17T01:03:39.372Z,4.80
2022-11-17T01:06:34.970Z,5.18
2022-11-17T01:09:25.430Z,5.03
2022-11-17T01:12:15.288Z,5.22
2022-11-17T01:15:05.396Z,5.40
2022-11-17T01:17:55.174Z,4.85
2022-11-17T01:20:45.143Z,4.90
2022-11-17T01:23:36.544Z,5.13
2022-11-17T01:26:32.142Z,4.38
2022-11-17T01:29:21.943Z,4.70
2022-11-17T01:32:11.673Z,5.15
2022-11-17T01:35:01.540Z,4.88
2022-11-17T01:37:52.459Z,4.72
2022-11-17T01:40:42.276Z,4.90
2022-11-17T01:43:37.969Z,4.78
2022-11-17T01:46:33.055Z,5.03
2022-11-17T01:49:27.235Z,5.22
2022-11-17T01:52:17.808Z,4.95
2022-11-17T01:55:11.015Z,4.80
2022-11-17T01:58:08.757Z,4.53
2022-11-17T02:00:59.645Z,4.20
2022-11-17T02:03:50.164Z,4.55
2022-11-17T02:06:40.869Z,4.72
2022-11-17T02:09:33.181Z,4.57
2022-11-17T02:12:26.639Z,4.38
2022-11-17T02:15:16.659Z,4.40
2022-11-17T02:18:06.917Z,4.28
2022-11-17T02:21:18.727Z,4.03
2022-11-17T02:24:27.412Z,4.03
2022-11-17T02:27:35.704Z,4.20
2022-11-17T02:30:34.525Z,4.07
2022-11-17T02:34:06.026Z,4.03
2022-11-17T02:37:05.486Z,3.88
2022-11-17T02:40:09.382Z,3.53
2022-11-17T02:43:31.851Z,3.42
2022-11-17T02:46:24.472Z,3.58
2022-11-17T02:49:25.529Z,3.28
2022-11-17T02:52:17.804Z,3.25
2022-11-17T02:55:10.613Z,3.28
2022-11-17T02:58:00.512Z,3.20
2022-11-17T03:01:07.377Z,3.40
2022-11-17T03:04:34.409Z,2.97
2022-11-17T03:08:01.766Z,2.97
2022-11-17T03:10:58.489Z,3.08
2022-11-17T03:13:54.357Z,3.22
2022-11-17T03:17:05.486Z,3.08
2022-11-17T03:20:04.015Z,2.80
2022-11-17T03:23:04.253Z,2.80
2022-11-17T03:25:58.459Z,3.40
2022-11-17T03:28:48.633Z,3.20
2022-11-17T03:31:41.300Z,3.00
2022-11-17T03:34:38.216Z,3.10
2022-11-17T03:37:33.370Z,3.15
2022-11-17T03:40:27.790Z,3.65
2022-11-17T03:43:20.271Z,3.72
2022-11-17T03:46:14.149Z,3.47
2022-11-17T03:49:26.052Z,3.38
2022-11-17T03:52:16.258Z,3.17
2022-11-17T03:55:07.648Z,3.42
2022-11-17T03:58:04.978Z,3.80
2022-11-17T04:00:58.179Z,3.95
2022-11-17T04:03:48.633Z,4.17
2022-11-17T04:06:38.513Z,3.55
2022-11-17T04:09:28.421Z,3.90
2022-11-17T04:12:37.176Z,3.47
2022-11-17T04:15:56.248Z,3.88
2022-11-17T04:18:46.312Z,3.90
2022-11-17T04:21:36.391Z,4.13
2022-11-17T04:24:26.622Z,4.22
2022-11-17T04:27:35.164Z,4.47
2022-11-17T04:30:25.450Z,4.10
2022-11-17T04:33:15.160Z,4.53
2022-11-17T04:36:06.119Z,3.90
2022-11-17T04:38:58.481Z,4.15
2022-11-17T04:41:54.674Z,4.35
2022-11-17T04:44:45.071Z,4.30
2022-11-17T04:47:34.933Z,3.45
2022-11-17T04:50:24.817Z,3.47
2022-11-17T04:53:14.828Z,4.20
2022-11-17T04:56:05.362Z,4.22
2022-11-17T04:58:56.358Z,4.38
2022-11-17T05:01:46.708Z,8.00
2022-11-17T05:04:55.664Z,4.75
2022-11-17T05:07:45.885Z,4.32
2022-11-17T05:10:54.468Z,4.78
2022-11-17T05:13:44.674Z,4.80
2022-11-17T05:16:53.390Z,4.68
2022-11-17T05:19:46.541Z,4.22
2022-11-17T05:22:55.182Z,4.47
2022-11-17T05:25:45.166Z,4.32
2022-11-17T05:28:35.049Z,4.40
2022-11-17T05:31:26.379Z,4.60
2022-11-17T05:34:17.399Z,4.43
2022-11-17T05:37:07.428Z,4.72
2022-11-17T05:39:57.592Z,5.03
2022-11-17T05:42:48.484Z,4.90
2022-11-17T05:45:41.012Z,5.47
2022-11-17T05:48:31.436Z,6.03
2022-11-17T05:51:23.595Z,5.93
2022-11-17T05:54:13.540Z,6.18
2022-11-17T05:57:10.371Z,5.47
2022-11-17T06:00:04.464Z,5.68
2022-11-17T06:03:08.119Z,5.15
2022-11-17T06:05:59.582Z,5.28
2022-11-17T06:08:52.528Z,5.63
2022-11-17T06:11:42.915Z,5.50
2022-11-17T06:14:41.676Z,4.97
2022-11-17T06:17:39.691Z,5.38
2022-11-17T06:20:34.710Z,4.75
2022-11-17T06:23:28.733Z,5.18
2022-11-17T06:26:18.759Z,4.03
2022-11-17T06:29:10.883Z,4.05
2022-11-17T06:32:01.433Z,3.72
2022-11-17T06:34:55.656Z,3.70
2022-11-17T06:37:46.640Z,2.90
2022-11-17T06:40:37.136Z,2.63
2022-11-17T06:43:27.122Z,2.60
2022-11-17T06:46:17.513Z,2.53
2022-11-17T06:49:07.998Z,2.75
2022-11-17T06:51:57.990Z,2.40
2022-11-17T06:54:48.041Z,2.42
2022-11-17T06:57:38.141Z,3.15
2022-11-17T07:00:29.512Z,3.13
2022-11-17T07:03:19.543Z,3.13
2022-11-17T07:06:10.888Z,2.78
2022-11-17T07:09:00.561Z,2.95
2022-11-17T07:11:50.557Z,3.10
2022-11-17T07:14:40.996Z,3.20
2022-11-17T07:17:32.017Z,2.95
2022-11-17T07:20:22.053Z,3.28
2022-11-17T07:23:12.378Z,2.70
2022-11-17T07:26:03.468Z,2.88
2022-11-17T07:28:53.520Z,2.88
2022-11-17T07:31:43.439Z,2.75
2022-11-17T07:34:33.509Z,2.50
2022-11-17T07:37:23.528Z,2.38
2022-11-17T07:40:13.767Z,3.15
2022-11-17T07:43:03.663Z,2.42
2022-11-17T07:45:54.846Z,2.00
2022-11-17T07:48:45.000Z,2.10
2022-11-17T07:51:34.882Z,2.00
2022-11-17T07:54:25.460Z,1.92
2022-11-17T07:57:15.347Z,1.65
2022-11-17T08:00:06.168Z,2.00
2022-11-17T08:03:04.142Z,2.08
2022-11-17T08:05:54.237Z,2.33
2022-11-17T08:08:44.283Z,2.33
2022-11-17T08:11:34.528Z,1.90
2022-11-17T08:14:24.428Z,1.98
2022-11-17T08:17:14.375Z,2.60
2022-11-17T08:20:05.198Z,2.65
2022-11-17T08:22:55.480Z,2.20
2022-11-17T08:25:45.606Z,2.40
2022-11-17T08:28:36.590Z,2.25
2022-11-17T08:31:26.648Z,2.28
2022-11-17T08:34:16.595Z,1.70
2022-11-17T08:37:06.424Z,1.88
2022-11-17T08:39:56.313Z,2.08
2022-11-17T08:42:47.333Z,2.08
2022-11-17T08:45:37.144Z,1.60
2022-11-17T08:48:27.061Z,1.60
2022-11-17T08:51:16.957Z,1.20
2022-11-17T08:54:06.793Z,1.50
2022-11-17T08:56:58.186Z,0.98
2022-11-17T08:59:48.749Z,1.00
2022-11-17T09:02:38.648Z,0.60
2022-11-17T09:05:28.715Z,0.85
2022-11-17T09:11:28.953Z,0.60
2022-11-17T09:14:18.969Z,0.50
2022-11-17T09:17:09.588Z,0.60
2022-11-17T09:19:59.889Z,0.52
2022-11-17T09:22:49.728Z,0.52
2022-11-17T09:25:39.853Z,0.55
2022-11-17T09:28:29.856Z,0.30
2022-11-17T09:31:21.415Z,0.60
2022-11-17T09:34:11.623Z,0.50
2022-11-17T09:37:02.123Z,0.40
2022-11-17T09:39:52.375Z,0.82
2022-11-17T09:42:43.265Z,0.50
2022-11-17T09:45:38.616Z,0.40
2022-11-17T09:48:41.902Z,0.50
2022-11-17T09:51:36.910Z,0.50
2022-11-17T09:54:35.516Z,0.60
2022-11-17T09:57:31.073Z,0.70
2022-11-17T10:00:23.077Z,0.70
2022-11-17T10:03:22.466Z,0.47
2022-11-17T10:06:17.498Z,0.63
2022-11-17T10:09:29.507Z,0.63
2022-11-17T10:12:21.979Z,0.70
2022-11-17T10:15:25.907Z,0.65
2022-11-17T10:18:17.033Z,0.55
2022-11-17T10:21:09.080Z,0.60
2022-11-17T10:23:59.527Z,0.70
2022-11-17T10:26:49.588Z,0.70
2022-11-17T10:29:39.796Z,0.73
2022-11-17T10:32:32.933Z,0.95
2022-11-17T10:35:30.325Z,0.80
2022-11-17T10:38:29.408Z,0.98
2022-11-17T10:41:32.850Z,0.73
2022-11-17T10:44:28.604Z,1.10
2022-11-17T10:47:30.699Z,0.80
2022-11-17T10:50:25.851Z,0.70
2022-11-17T10:53:23.056Z,0.90
2022-11-17T10:56:19.809Z,0.75
2022-11-17T10:59:09.698Z,0.80
2022-11-17T11:02:31.280Z,0.57
2022-11-17T11:05:21.245Z,0.70
2022-11-17T11:08:21.984Z,0.70
2022-11-17T11:11:36.258Z,0.82
2022-11-17T11:14:44.237Z,0.75
2022-11-17T11:17:37.128Z,0.80
2022-11-17T11:20:44.476Z,0.70
2022-11-17T11:23:34.302Z,1.00
2022-11-17T11:26:32.993Z,0.80
2022-11-17T11:29:44.144Z,0.95
2022-11-17T11:32:41.147Z,0.70
2022-11-17T11:35:43.172Z,1.48
2022-11-17T11:38:45.358Z,0.80
2022-11-17T11:42:29.893Z,0.55
2022-11-17T11:45:38.935Z,0.88
2022-11-17T11:48:36.519Z,1.20
2022-11-17T11:51:36.631Z,0.70
2022-11-17T11:54:40.544Z,0.80
2022-11-17T11:57:43.435Z,0.80
2022-11-17T12:00:35.852Z,0.80
2022-11-17T12:04:11.228Z,1.00
2022-11-17T12:07:07.842Z,0.60
2022-11-17T12:10:40.841Z,0.90
2022-11-17T12:13:31.226Z,0.65
2022-11-17T12:16:32.058Z,0.52
2022-11-17T12:19:44.195Z,0.90
2022-11-17T12:22:44.484Z,0.43
2022-11-17T12:25:36.599Z,0.73
2022-11-17T12:28:41.138Z,0.50
2022-11-17T12:31:42.789Z,0.68
2022-11-17T12:34:37.395Z,0.80
2022-11-17T12:37:27.573Z,0.80
2022-11-17T12:40:37.902Z,0.60
2022-11-17T12:43:29.510Z,0.70
2022-11-17T12:46:27.334Z,0.90
2022-11-17T12:49:31.846Z,1.15
2022-11-17T12:52:52.577Z,0.70
2022-11-17T12:56:12.472Z,0.77
2022-11-17T12:59:30.553Z,1.25
2022-11-17T13:02:32.121Z,1.02
2022-11-17T13:05:24.824Z,1.05
2022-11-17T13:08:14.917Z,0.88
2022-11-17T13:11:11.920Z,1.17
2022-11-17T13:14:09.382Z,1.08
2022-11-17T13:17:01.154Z,1.13
2022-11-17T13:19:59.374Z,1.13
2022-11-17T13:23:06.472Z,0.63
2022-11-17T13:26:09.427Z,1.23
2022-11-17T13:29:05.652Z,1.52
2022-11-17T13:32:16.044Z,1.33
2022-11-17T13:35:19.793Z,1.02
2022-11-17T13:38:20.261Z,0.93
2022-11-17T13:41:10.505Z,0.85
2022-11-17T13:44:01.290Z,1.20
2022-11-17T13:46:51.227Z,0.90
2022-11-17T13:49:41.243Z,1.00
2022-11-17T13:52:41.987Z,1.02
2022-11-17T13:55:35.773Z,1.50
2022-11-17T13:58:38.173Z,1.40
2022-11-17T14:01:29.606Z,1.35
2022-11-17T14:04:23.825Z,1.05
2022-11-17T14:07:30.044Z,1.58
2022-11-17T14:10:20.130Z,1.50
2022-11-17T14:13:22.159Z,1.77
2022-11-17T14:16:25.711Z,1.33
2022-11-17T14:19:15.799Z,1.05
2022-11-17T14:22:08.900Z,1.65
2022-11-17T14:24:59.292Z,1.60
2022-11-17T14:27:53.204Z,1.40
2022-11-17T14:30:46.969Z,1.20
2022-11-17T14:33:37.211Z,1.13
2022-11-17T14:36:27.604Z,1.02
2022-11-17T14:39:18.263Z,1.25
2022-11-17T14:42:10.981Z,1.25
2022-11-17T14:45:01.372Z,1.13
2022-11-17T14:47:51.319Z,1.40
2022-11-17T14:50:41.226Z,1.42
2022-11-17T14:53:31.032Z,1.63
2022-11-17T14:56:23.635Z,1.60
2022-11-17T14:59:13.840Z,1.33
2022-11-17T15:02:04.272Z,2.60
2022-11-17T15:04:54.704Z,1.98
2022-11-17T15:07:45.169Z,1.45
2022-11-17T15:10:35.510Z,1.50
2022-11-17T15:13:25.697Z,1.70
2022-11-17T15:16:16.267Z,1.40
2022-11-17T15:19:06.742Z,1.40
2022-11-17T15:21:56.620Z,2.00
2022-11-17T15:24:47.213Z,1.50
2022-11-17T15:27:37.338Z,1.58
2022-11-17T15:30:27.330Z,1.20
2022-11-17T15:33:17.722Z,2.47
2022-11-17T15:36:10.161Z,1.90
2022-11-17T15:39:00.029Z,1.95
2022-11-17T15:41:50.728Z,2.22
2022-11-17T15:44:40.778Z,1.48
2022-11-17T15:47:30.936Z,1.70
2022-11-17T15:50:20.765Z,2.28
2022-11-17T15:53:11.086Z,1.83
2022-11-17T15:56:23.486Z,2.10
2022-11-17T15:59:13.618Z,2.40
2022-11-17T16:02:10.304Z,1.80
2022-11-17T16:05:00.260Z,2.17
2022-11-17T16:07:50.281Z,1.83
2022-11-17T16:10:40.440Z,2.22
2022-11-17T16:13:31.028Z,2.40
2022-11-17T16:16:22.032Z,2.08
2022-11-17T16:19:12.068Z,2.10
2022-11-17T16:22:01.979Z,1.65
2022-11-17T16:24:51.748Z,1.65
2022-11-17T16:27:41.626Z,1.55
2022-11-17T16:30:35.276Z,2.20
2022-11-17T16:33:26.261Z,1.67
2022-11-17T16:36:17.868Z,2.00
2022-11-17T16:39:11.676Z,1.90
2022-11-17T16:42:01.660Z,1.73
2022-11-17T16:44:51.888Z,2.15
2022-11-17T16:47:42.060Z,1.67
2022-11-17T16:50:36.222Z,2.03
2022-11-17T16:53:26.165Z,2.55
2022-11-17T16:56:16.448Z,2.75
2022-11-17T16:59:07.162Z,3.17
2022-11-17T17:01:57.284Z,3.92
2022-11-17T17:04:47.194Z,2.92
2022-11-17T17:07:37.511Z,2.90
2022-11-17T17:10:27.725Z,1.88
2022-11-17T17:13:17.504Z,2.00
2022-11-17T17:16:13.786Z,1.83
2022-11-17T17:19:06.100Z,1.48
2022-11-17T17:21:56.271Z,2.75
2022-11-17T17:24:46.617Z,3.85
2022-11-17T17:27:38.883Z,2.90
2022-11-17T17:30:29.151Z,6.00
2022-11-17T17:33:19.040Z,6.00
2022-11-17T17:36:12.327Z,3.30
2022-11-17T17:39:02.453Z,5.88
2022-11-17T17:41:56.571Z,6.63
2022-11-17T17:44:46.857Z,6.28
2022-11-17T17:47:36.828Z,5.03
2022-11-17T17:50:26.751Z,4.97
2022-11-17T17:53:16.817Z,5.05
2022-11-17T17:56:12.139Z,3.08
2022-11-17T17:59:02.358Z,4.60
2022-11-17T18:01:53.227Z,3.80
2022-11-17T18:04:43.051Z,4.43
2022-11-17T18:07:33.106Z,3.72
2022-11-17T18:10:23.355Z,4.43
2022-11-17T18:13:13.153Z,4.18
2022-11-17T18:16:05.195Z,3.55
2022-11-17T18:18:58.282Z,4.10
2022-11-17T18:21:48.178Z,4.32
2022-11-17T18:24:38.190Z,3.45
2022-11-17T18:27:28.105Z,3.63
2022-11-17T18:30:18.131Z,4.13
2022-11-17T18:33:08.230Z,8.68
2022-11-17T18:36:09.175Z,7.03
2022-11-17T18:38:59.473Z,8.35
2022-11-17T18:41:49.612Z,4.95
2022-11-17T18:44:39.860Z,3.47
2022-11-17T18:47:29.860Z,3.28
2022-11-17T18:50:20.075Z,3.35
2022-11-17T18:53:10.121Z,3.13
2022-11-17T18:56:06.004Z,4.70
2022-11-17T18:58:56.537Z,3.22
2022-11-17T19:01:47.023Z,3.25
2022-11-17T19:04:37.023Z,2.83
2022-11-17T19:07:27.007Z,2.85
2022-11-17T19:10:17.481Z,2.65
2022-11-17T19:13:07.207Z,3.28
2022-11-17T19:16:08.334Z,2.85
2022-11-17T19:18:59.258Z,3.25
2022-11-17T19:21:49.531Z,7.15
2022-11-17T19:24:40.669Z,7.40
2022-11-17T19:27:30.805Z,7.45
2022-11-17T19:30:20.646Z,3.80
2022-11-17T19:33:10.597Z,4.43
2022-11-17T19:36:15.439Z,7.05
2022-11-17T19:39:06.019Z,4.97
2022-11-17T19:41:56.052Z,7.43
2022-11-17T19:44:46.207Z,7.97
2022-11-17T19:47:37.432Z,3.42
2022-11-17T19:50:28.564Z,2.72
2022-11-17T19:53:18.730Z,3.03
2022-11-17T19:56:09.213Z,8.10
2022-11-17T19:58:59.774Z,3.25
2022-11-17T20:01:50.001Z,3.10
2022-11-17T20:04:40.518Z,3.15
2022-11-17T20:07:30.807Z,3.85
2022-11-17T20:10:21.224Z,3.33
2022-11-17T20:13:11.785Z,3.75
2022-11-17T20:16:07.521Z,6.10
2022-11-17T20:19:02.388Z,2.42
2022-11-17T20:21:55.699Z,2.60
2022-11-17T20:24:45.965Z,2.20
2022-11-17T20:27:36.186Z,2.22
2022-11-17T20:30:26.295Z,2.03
2022-11-17T20:33:16.845Z,1.92
2022-11-17T20:36:08.628Z,4.15
2022-11-17T20:39:01.234Z,2.45
2022-11-17T20:41:51.396Z,2.08
2022-11-17T20:44:41.241Z,1.60
2022-11-17T20:47:31.292Z,1.20
2022-11-17T20:50:21.373Z,1.45
2022-11-17T20:53:11.775Z,1.13
2022-11-17T20:56:04.377Z,1.15
2022-11-17T20:58:57.371Z,2.30
2022-11-17T21:01:49.389Z,0.83
2022-11-17T21:04:39.615Z,0.80
2022-11-17T21:07:29.669Z,1.05
2022-11-17T21:10:20.042Z,1.40
2022-11-17T21:13:09.861Z,0.60
2022-11-17T21:16:08.069Z,0.70
2022-11-17T21:18:58.806Z,0.50
2022-11-17T21:21:51.506Z,0.80
2022-11-17T21:24:42.105Z,1.55
2022-11-17T21:27:32.445Z,0.60
2022-11-17T21:30:22.619Z,0.82
2022-11-17T21:33:14.957Z,0.30
2022-11-17T21:36:07.884Z,0.68
2022-11-17T21:38:58.567Z,0.80
2022-11-17T21:41:48.420Z,0.70
2022-11-17T21:44:39.212Z,0.82
2022-11-17T21:47:29.375Z,0.45
2022-11-17T21:50:19.516Z,0.68
2022-11-17T21:53:09.649Z,0.50
2022-11-17T21:56:01.418Z,0.40
2022-11-17T21:58:57.160Z,0.50
2022-11-17T22:01:48.054Z,0.70
2022-11-17T22:04:38.916Z,0.45
2022-11-17T22:07:29.399Z,4.10
2022-11-17T22:10:19.694Z,8.43
2022-11-17T22:13:10.372Z,0.50
2022-11-17T22:16:14.391Z,0.30
2022-11-17T22:19:05.010Z,0.70
2022-11-17T22:21:55.258Z,0.63
2022-11-17T22:24:49.610Z,0.50
2022-11-17T22:27:40.296Z,0.40
2022-11-17T22:30:30.605Z,0.60
2022-11-17T22:33:21.890Z,0.60
2022-11-17T22:36:11.993Z,0.40
2022-11-17T22:39:02.037Z,0.50
2022-11-17T22:41:52.230Z,0.68
2022-11-17T22:44:42.271Z,0.32
2022-11-17T22:47:32.369Z,0.60
2022-11-17T22:50:22.354Z,0.52
2022-11-17T22:53:12.260Z,0.63
2022-11-17T22:56:04.497Z,0.50
2022-11-17T22:58:59.440Z,0.50
2022-11-17T23:01:50.121Z,0.50
2022-11-17T23:04:40.322Z,0.50
2022-11-17T23:07:30.878Z,0.60
2022-11-17T23:10:21.455Z,0.65
2022-11-17T23:13:11.331Z,0.55
2022-11-17T23:16:05.176Z,1.10
2022-11-17T23:21:45.827Z,0.60
2022-11-17T23:24:36.208Z,0.50
2022-11-17T23:27:26.305Z,0.95
2022-11-17T23:30:16.876Z,0.60
2022-11-17T23:33:06.851Z,0.65
2022-11-17T23:35:57.764Z,1.00
2022-11-17T23:38:49.004Z,0.52
2022-11-17T23:41:39.283Z,1.73
2022-11-17T23:44:29.213Z,0.30
2022-11-17T23:47:19.229Z,1.42
2022-11-17T23:50:09.330Z,0.75
2022-11-17T23:52:59.394Z,0.30
2022-11-17T23:55:57.315Z,0.40
2022-11-17T23:58:47.759Z,0.63
